createdAt,value
2022-10-10T00:00:23.827Z,39.71
2022-10-10T00:02:51.529Z,39.31
2022-10-10T00:05:18.837Z,39.82
2022-10-10T00:07:45.967Z,40.26
2022-10-10T00:10:13.364Z,39.34
2022-10-10T00:12:40.478Z,39.68
2022-10-10T00:15:07.947Z,41.21
2022-10-10T00:17:35.469Z,42.07
2022-10-10T00:20:03.073Z,42.15
2022-10-10T00:22:30.226Z,40.43
2022-10-10T00:25:00.213Z,41.50
2022-10-10T00:27:27.348Z,42.10
2022-10-10T00:29:54.520Z,40.43
2022-10-10T00:32:21.904Z,40.99
2022-10-10T00:34:49.051Z,41.39
2022-10-10T00:37:16.178Z,41.35
2022-10-10T00:39:43.591Z,41.29
2022-10-10T00:42:12.101Z,39.77
2022-10-10T00:44:41.132Z,39.44
2022-10-10T00:47:08.714Z,41.07
2022-10-10T00:49:36.813Z,40.45
2022-10-10T00:52:03.938Z,39.45
2022-10-10T00:54:32.320Z,38.77
2022-10-10T00:57:00.942Z,38.52
2022-10-10T00:59:28.155Z,40.64
2022-10-10T01:01:55.542Z,40.53
2022-10-10T01:04:33.045Z,39.94
2022-10-10T01:07:00.672Z,40.22
2022-10-10T01:09:28.140Z,40.20
2022-10-10T01:11:55.952Z,40.40
2022-10-10T01:14:40.462Z,39.32
2022-10-10T01:17:11.407Z,38.67
2022-10-10T01:19:57.654Z,38.43
2022-10-10T01:22:24.708Z,38.79
2022-10-10T01:24:52.036Z,40.60
2022-10-10T01:27:45.385Z,40.97
2022-10-10T01:30:17.059Z,40.95
2022-10-10T01:32:44.391Z,40.46
2022-10-10T01:35:20.545Z,40.76
2022-10-10T01:37:54.924Z,40.27
2022-10-10T01:40:45.257Z,40.95
2022-10-10T01:43:12.626Z,41.39
2022-10-10T01:45:50.143Z,41.14
2022-10-10T01:48:18.465Z,41.68
2022-10-10T01:50:54.619Z,40.87
2022-10-10T01:53:24.118Z,39.53
2022-10-10T01:55:57.457Z,41.37
2022-10-10T01:58:27.620Z,40.43
2022-10-10T02:00:57.823Z,40.19
2022-10-10T02:03:29.920Z,40.16
2022-10-10T02:05:59.681Z,40.57
2022-10-10T02:08:28.008Z,40.96
2022-10-10T02:10:59.388Z,42.22
2022-10-10T02:13:28.469Z,41.98
2022-10-10T02:15:55.622Z,41.67
2022-10-10T02:18:23.694Z,41.31
2022-10-10T02:20:51.187Z,41.76
2022-10-10T02:23:18.329Z,41.42
2022-10-10T02:25:47.868Z,42.68
2022-10-10T02:28:44.681Z,41.12
2022-10-10T02:31:12.895Z,41.40
2022-10-10T02:33:47.175Z,41.87
2022-10-10T02:36:14.851Z,42.66
2022-10-10T02:38:42.342Z,41.65
2022-10-10T02:41:09.875Z,41.47
2022-10-10T02:43:37.036Z,42.36
2022-10-10T02:46:04.879Z,41.83
2022-10-10T02:48:32.000Z,41.20
2022-10-10T02:50:59.236Z,42.31
2022-10-10T02:53:26.631Z,41.39
2022-10-10T02:55:53.776Z,42.21
2022-10-10T02:58:21.006Z,40.94
2022-10-10T03:00:48.429Z,39.66
2022-10-10T03:03:15.567Z,41.74
2022-10-10T03:05:42.717Z,42.23
2022-10-10T03:08:11.743Z,41.61
2022-10-10T03:10:39.137Z,41.18
2022-10-10T03:13:06.270Z,41.91
2022-10-10T03:15:33.655Z,43.00
2022-10-10T03:18:00.770Z,42.73
2022-10-10T03:20:28.014Z,41.21
2022-10-10T03:22:55.408Z,40.73
2022-10-10T03:25:22.524Z,40.83
2022-10-10T03:27:49.658Z,40.12
2022-10-10T03:30:17.043Z,40.87
2022-10-10T03:32:44.171Z,41.79
2022-10-10T03:35:11.295Z,40.10
2022-10-10T03:37:38.671Z,41.59
2022-10-10T03:40:06.040Z,41.41
2022-10-10T03:42:33.192Z,41.63
2022-10-10T03:45:00.582Z,42.27
2022-10-10T03:47:27.707Z,41.76
2022-10-10T03:49:54.825Z,42.34
2022-10-10T03:52:22.220Z,40.96
2022-10-10T03:54:49.329Z,41.25
2022-10-10T03:57:16.511Z,42.68
2022-10-10T03:59:43.864Z,43.33
2022-10-10T04:02:10.988Z,43.00
2022-10-10T04:04:38.370Z,43.80
2022-10-10T04:07:05.474Z,43.37
2022-10-10T04:09:32.731Z,44.64
2022-10-10T04:12:00.102Z,44.29
2022-10-10T04:14:27.239Z,42.96
2022-10-10T04:16:54.425Z,43.75
2022-10-10T04:19:24.713Z,43.68
2022-10-10T04:21:51.920Z,44.66
2022-10-10T04:24:19.111Z,44.38
2022-10-10T04:26:46.491Z,44.35
2022-10-10T04:29:13.629Z,42.72
2022-10-10T04:31:40.745Z,41.51
2022-10-10T04:34:08.140Z,43.05
2022-10-10T04:36:35.243Z,42.40
2022-10-10T04:39:02.412Z,43.38
2022-10-10T04:41:29.794Z,43.77
2022-10-10T04:43:56.914Z,43.75
2022-10-10T04:46:24.022Z,43.22
2022-10-10T04:48:51.401Z,42.90
2022-10-10T04:51:18.752Z,42.63
2022-10-10T04:53:50.068Z,43.11
2022-10-10T04:56:17.910Z,43.19
2022-10-10T04:58:45.016Z,44.22
2022-10-10T05:01:12.185Z,43.89
2022-10-10T05:03:39.581Z,43.22
2022-10-10T05:06:06.743Z,43.89
2022-10-10T05:08:33.862Z,44.61
2022-10-10T05:11:01.374Z,43.94
2022-10-10T05:13:28.472Z,45.53
2022-10-10T05:15:55.565Z,45.28
2022-10-10T05:18:23.035Z,45.53
2022-10-10T05:20:50.159Z,43.89
2022-10-10T05:23:17.315Z,43.67
2022-10-10T05:25:45.303Z,43.46
2022-10-10T05:28:12.553Z,44.96
2022-10-10T05:30:39.751Z,44.31
2022-10-10T05:33:07.113Z,43.49
2022-10-10T05:35:34.214Z,43.81
2022-10-10T05:38:01.320Z,42.68
2022-10-10T05:40:28.715Z,42.49
2022-10-10T05:42:55.834Z,41.36
2022-10-10T05:45:22.958Z,42.06
2022-10-10T05:47:50.361Z,42.79
2022-10-10T05:50:22.868Z,43.76
2022-10-10T05:52:50.244Z,44.02
2022-10-10T05:55:17.790Z,42.82
2022-10-10T05:57:44.919Z,44.09
2022-10-10T06:00:12.298Z,44.36
2022-10-10T06:02:39.730Z,43.69
2022-10-10T06:05:07.063Z,43.17
2022-10-10T06:07:59.024Z,43.19
2022-10-10T06:10:21.562Z,42.66
2022-10-10T06:12:48.839Z,43.92
2022-10-10T06:15:16.175Z,44.22
2022-10-10T06:17:43.586Z,43.57
2022-10-10T06:20:10.694Z,44.14
2022-10-10T06:22:37.830Z,44.71
2022-10-10T06:25:15.154Z,44.04
2022-10-10T06:27:51.301Z,44.19
2022-10-10T06:30:18.693Z,43.44
2022-10-10T06:32:45.814Z,43.54
2022-10-10T06:35:13.004Z,43.71
2022-10-10T06:37:40.376Z,45.46
2022-10-10T06:40:07.992Z,45.45
2022-10-10T06:42:35.130Z,43.57
2022-10-10T06:45:03.767Z,43.47
2022-10-10T06:47:30.925Z,43.58
2022-10-10T06:49:58.121Z,43.03
2022-10-10T06:52:25.684Z,43.25
2022-10-10T06:54:52.861Z,45.19
2022-10-10T06:57:19.988Z,43.92
2022-10-10T06:59:47.387Z,43.14
2022-10-10T07:02:14.497Z,42.52
2022-10-10T07:04:41.624Z,42.24
2022-10-10T07:07:09.595Z,42.39
2022-10-10T07:09:36.785Z,42.77
2022-10-10T07:12:04.571Z,42.45
2022-10-10T07:14:31.923Z,41.14
2022-10-10T07:16:59.105Z,40.20
2022-10-10T07:19:26.220Z,41.45
2022-10-10T07:21:53.587Z,39.71
2022-10-10T07:24:20.703Z,39.28
2022-10-10T07:26:47.842Z,39.93
2022-10-10T07:29:15.211Z,38.38
2022-10-10T07:31:42.353Z,39.40
2022-10-10T07:34:09.478Z,39.88
2022-10-10T07:36:37.719Z,39.17
2022-10-10T07:39:05.594Z,38.33
2022-10-10T07:41:32.722Z,39.00
2022-10-10T07:44:00.088Z,38.05
2022-10-10T07:46:27.299Z,39.98
2022-10-10T07:48:55.290Z,40.36
2022-10-10T07:51:22.673Z,41.47
2022-10-10T07:53:51.149Z,40.70
2022-10-10T07:56:18.269Z,41.20
2022-10-10T07:58:45.662Z,42.09
2022-10-10T08:01:13.183Z,40.62
2022-10-10T08:03:40.526Z,40.39
2022-10-10T08:06:09.205Z,41.48
2022-10-10T08:08:46.001Z,41.67
2022-10-10T08:11:16.167Z,40.12
2022-10-10T08:13:43.288Z,40.11
2022-10-10T08:16:10.562Z,38.34
2022-10-10T08:18:37.949Z,39.98
2022-10-10T08:21:06.289Z,39.12
2022-10-10T08:23:33.420Z,38.57
2022-10-10T08:26:01.457Z,37.46
2022-10-10T08:28:28.701Z,37.33
2022-10-10T08:30:56.044Z,36.48
2022-10-10T08:33:26.101Z,36.15
2022-10-10T08:35:53.220Z,36.29
2022-10-10T08:38:20.343Z,35.73
2022-10-10T08:40:51.079Z,36.99
2022-10-10T08:43:44.639Z,36.31
2022-10-10T08:46:16.699Z,35.70
2022-10-10T08:48:43.805Z,37.17
2022-10-10T08:51:12.632Z,36.83
2022-10-10T08:53:49.428Z,35.94
2022-10-10T08:56:18.584Z,35.29
2022-10-10T08:58:47.171Z,34.54
2022-10-10T09:01:25.091Z,34.81
2022-10-10T09:03:56.208Z,34.25
2022-10-10T09:06:42.132Z,32.67
2022-10-10T09:09:12.526Z,34.26
2022-10-10T09:11:39.575Z,34.43
2022-10-10T09:14:14.286Z,34.36
2022-10-10T09:16:47.396Z,34.86
2022-10-10T09:19:24.481Z,34.39
2022-10-10T09:21:53.523Z,33.65
2022-10-10T09:24:22.973Z,34.45
2022-10-10T09:26:51.999Z,34.65
2022-10-10T09:29:27.975Z,34.97
2022-10-10T09:32:07.887Z,34.15
2022-10-10T09:34:36.596Z,34.90
2022-10-10T09:37:03.820Z,32.13
2022-10-10T09:39:51.336Z,33.74
2022-10-10T09:42:19.135Z,33.66
2022-10-10T09:44:46.493Z,34.09
2022-10-10T09:47:14.229Z,32.21
2022-10-10T09:49:41.755Z,32.90
2022-10-10T09:52:25.710Z,33.09
2022-10-10T09:54:55.710Z,32.53
2022-10-10T09:57:23.157Z,33.00
2022-10-10T09:59:50.294Z,31.91
2022-10-10T10:02:17.728Z,32.77
2022-10-10T10:04:45.247Z,32.39
2022-10-10T10:07:20.035Z,31.58
2022-10-10T10:09:51.436Z,32.73
2022-10-10T10:12:21.305Z,31.29
2022-10-10T10:14:48.699Z,32.05
2022-10-10T10:17:16.890Z,32.69
2022-10-10T10:19:44.517Z,30.88
2022-10-10T10:22:27.258Z,30.47
2022-10-10T10:24:54.432Z,30.82
2022-10-10T10:27:22.893Z,30.68
2022-10-10T10:29:54.273Z,31.54
2022-10-10T10:32:26.577Z,31.16
2022-10-10T10:35:00.904Z,29.85
2022-10-10T10:37:34.425Z,29.85
2022-10-10T10:40:13.421Z,29.65
2022-10-10T10:42:54.283Z,29.67
2022-10-10T10:45:21.328Z,31.01
2022-10-10T10:47:53.642Z,30.52
2022-10-10T10:50:26.334Z,29.87
2022-10-10T10:52:56.903Z,28.24
2022-10-10T10:55:26.362Z,27.64
2022-10-10T10:58:22.527Z,26.86
2022-10-10T11:01:24.259Z,27.95
2022-10-10T11:05:17.598Z,26.81
2022-10-10T11:07:20.047Z,27.61
2022-10-10T11:09:51.085Z,26.21
2022-10-10T11:12:31.316Z,27.68
2022-10-10T11:15:01.287Z,25.79
2022-10-10T11:17:36.275Z,26.28
2022-10-10T11:20:19.988Z,26.40
2022-10-10T11:22:51.972Z,25.63
2022-10-10T11:25:23.418Z,26.04
2022-10-10T11:27:52.729Z,26.61
2022-10-10T11:30:20.028Z,26.34
2022-10-10T11:32:47.743Z,26.42
2022-10-10T11:35:33.786Z,28.32
2022-10-10T11:38:03.334Z,26.92
2022-10-10T11:40:33.566Z,29.00
2022-10-10T11:43:02.657Z,28.05
2022-10-10T11:45:31.251Z,27.24
2022-10-10T11:48:04.434Z,27.77
2022-10-10T11:50:32.991Z,26.26
2022-10-10T11:53:26.513Z,27.47
2022-10-10T11:55:53.855Z,27.34
2022-10-10T11:58:26.156Z,27.01
2022-10-10T12:00:55.099Z,27.52
2022-10-10T12:03:24.017Z,26.91
2022-10-10T12:05:53.691Z,27.47
2022-10-10T12:08:22.307Z,28.81
2022-10-10T12:10:53.784Z,26.17
2022-10-10T12:13:23.860Z,27.10
2022-10-10T12:15:51.591Z,28.30
2022-10-10T12:18:24.433Z,26.67
2022-10-10T12:21:02.335Z,26.60
2022-10-10T12:23:30.131Z,26.16
2022-10-10T12:25:57.554Z,26.30
2022-10-10T12:28:26.737Z,26.17
2022-10-10T12:30:58.452Z,25.00
2022-10-10T12:33:26.170Z,27.52
2022-10-10T12:35:53.583Z,26.54
2022-10-10T12:38:24.150Z,25.78
2022-10-10T12:40:57.757Z,25.66
2022-10-10T12:43:26.049Z,26.62
2022-10-10T12:45:53.406Z,25.39
2022-10-10T12:48:20.523Z,24.63
2022-10-10T12:51:00.420Z,24.48
2022-10-10T12:53:28.689Z,26.32
2022-10-10T12:56:00.879Z,26.96
2022-10-10T12:58:29.954Z,24.84
2022-10-10T13:00:58.391Z,24.66
2022-10-10T13:03:25.438Z,22.57
2022-10-10T13:05:52.853Z,23.49
2022-10-10T13:08:21.011Z,23.77
2022-10-10T13:11:05.649Z,24.28
2022-10-10T13:13:33.394Z,24.88
2022-10-10T13:16:05.677Z,25.81
2022-10-10T13:18:34.066Z,25.01
2022-10-10T13:21:02.318Z,23.73
2022-10-10T13:23:29.586Z,23.85
2022-10-10T13:25:56.724Z,23.37
2022-10-10T13:28:24.198Z,24.01
2022-10-10T13:30:51.348Z,22.75
2022-10-10T13:33:19.348Z,24.65
2022-10-10T13:35:46.736Z,25.59
2022-10-10T13:38:14.460Z,25.83
2022-10-10T13:40:42.000Z,25.51
2022-10-10T13:43:16.420Z,23.22
2022-10-10T13:45:49.737Z,24.23
2022-10-10T13:48:18.777Z,24.22
2022-10-10T13:50:47.867Z,25.38
2022-10-10T13:53:28.713Z,24.64
2022-10-10T13:56:25.012Z,24.13
2022-10-10T13:59:01.283Z,26.41
2022-10-10T14:01:31.563Z,29.10
2022-10-10T14:04:06.985Z,27.48
2022-10-10T14:06:34.174Z,26.13
2022-10-10T14:09:26.037Z,24.99
2022-10-10T14:11:53.484Z,25.23
2022-10-10T14:14:32.420Z,23.53
2022-10-10T14:17:03.136Z,24.81
2022-10-10T14:19:30.861Z,24.39
2022-10-10T14:21:57.994Z,24.52
2022-10-10T14:24:25.397Z,24.88
2022-10-10T14:26:52.778Z,24.00
2022-10-10T14:29:19.986Z,23.95
2022-10-10T14:31:47.343Z,27.92
2022-10-10T14:34:15.032Z,28.06
2022-10-10T14:36:45.227Z,26.99
2022-10-10T14:39:13.681Z,28.27
2022-10-10T14:41:41.062Z,28.27
2022-10-10T14:44:08.197Z,26.20
2022-10-10T14:46:35.316Z,27.34
2022-10-10T14:49:02.708Z,27.83
2022-10-10T14:51:34.503Z,28.57
2022-10-10T14:54:09.826Z,29.00
2022-10-10T14:57:09.252Z,28.14
2022-10-10T14:59:47.365Z,26.35
2022-10-10T15:02:16.089Z,28.10
2022-10-10T15:04:43.492Z,27.21
2022-10-10T15:07:14.420Z,29.13
2022-10-10T15:12:34.139Z,28.71
2022-10-10T15:15:01.308Z,27.98
2022-10-10T15:17:30.394Z,28.59
2022-10-10T15:19:57.777Z,29.06
2022-10-10T15:22:24.951Z,29.05
2022-10-10T15:24:52.046Z,29.28
2022-10-10T15:27:19.454Z,29.30
2022-10-10T15:29:46.588Z,29.34
2022-10-10T15:32:13.691Z,29.61
2022-10-10T15:34:41.075Z,29.20
2022-10-10T15:37:10.447Z,29.41
2022-10-10T15:39:37.935Z,29.51
2022-10-10T15:42:12.239Z,29.49
2022-10-10T15:44:45.238Z,29.49
2022-10-10T15:47:12.980Z,30.04
2022-10-10T15:49:40.086Z,29.89
2022-10-10T15:52:07.716Z,30.23
2022-10-10T15:54:35.159Z,30.41
2022-10-10T15:57:02.273Z,30.07
2022-10-10T15:59:29.486Z,30.32
2022-10-10T16:01:56.898Z,30.22
2022-10-10T16:04:25.288Z,30.50
2022-10-10T16:07:19.346Z,30.24
2022-10-10T16:09:40.800Z,30.35
2022-10-10T16:12:07.927Z,30.30
2022-10-10T16:14:35.069Z,30.36
2022-10-10T16:17:02.483Z,30.72
2022-10-10T16:19:29.592Z,30.42
2022-10-10T16:21:56.818Z,30.16
2022-10-10T16:24:24.245Z,30.50
2022-10-10T16:26:51.389Z,30.85
2022-10-10T16:29:18.767Z,30.91
2022-10-10T16:31:46.177Z,30.67
2022-10-10T16:34:15.872Z,30.91
2022-10-10T16:36:43.150Z,30.79
2022-10-10T16:39:10.587Z,30.67
2022-10-10T16:41:52.940Z,30.89
2022-10-10T16:44:20.347Z,31.50
2022-10-10T16:46:47.482Z,31.17
2022-10-10T16:49:16.788Z,31.58
2022-10-10T16:51:44.319Z,31.71
2022-10-10T16:54:11.429Z,31.24
2022-10-10T16:56:38.570Z,30.60
2022-10-10T16:59:06.023Z,30.91
2022-10-10T17:01:33.451Z,32.12
2022-10-10T17:04:01.293Z,30.71
2022-10-10T17:06:34.888Z,31.02
2022-10-10T17:09:02.909Z,31.63
2022-10-10T17:11:30.567Z,31.14
2022-10-10T17:13:57.739Z,31.60
2022-10-10T17:19:13.081Z,30.92
2022-10-10T17:21:40.193Z,32.45
2022-10-10T17:24:07.336Z,32.96
2022-10-10T17:26:34.732Z,31.05
2022-10-10T17:29:01.931Z,31.82
2022-10-10T17:31:29.090Z,32.32
2022-10-10T17:33:56.872Z,31.99
2022-10-10T17:36:24.886Z,31.59
2022-10-10T17:38:52.329Z,32.68
2022-10-10T17:41:19.917Z,32.32
2022-10-10T17:43:47.045Z,31.95
2022-10-10T17:46:35.842Z,31.94
2022-10-10T17:49:04.735Z,32.51
2022-10-10T17:51:31.891Z,31.13
2022-10-10T17:53:59.528Z,30.92
2022-10-10T17:56:27.193Z,32.52
2022-10-10T17:58:54.419Z,31.95
2022-10-10T18:01:21.721Z,33.49
2022-10-10T18:03:49.185Z,33.55
2022-10-10T18:06:18.042Z,33.38
2022-10-10T18:08:49.717Z,33.00
2022-10-10T18:11:24.199Z,33.26
2022-10-10T18:13:52.054Z,33.15
2022-10-10T18:16:20.753Z,33.19
2022-10-10T18:18:51.372Z,33.18
2022-10-10T18:21:21.296Z,32.69
2022-10-10T18:23:48.779Z,33.00
2022-10-10T18:26:20.875Z,32.98
2022-10-10T18:28:49.087Z,33.54
2022-10-10T18:31:24.795Z,33.76
2022-10-10T18:33:52.348Z,33.94
2022-10-10T18:36:27.402Z,33.40
2022-10-10T18:38:55.257Z,33.53
2022-10-10T18:41:23.447Z,33.27
2022-10-10T18:43:51.336Z,33.09
2022-10-10T18:46:20.410Z,33.03
2022-10-10T18:48:51.506Z,33.07
2022-10-10T18:51:24.119Z,32.96
2022-10-10T18:53:52.097Z,32.92
2022-10-10T18:56:24.910Z,32.84
2022-10-10T18:58:53.824Z,33.04
2022-10-10T19:01:24.932Z,32.53
2022-10-10T19:03:53.171Z,32.40
2022-10-10T19:06:21.549Z,32.63
2022-10-10T19:08:48.951Z,33.06
2022-10-10T19:11:26.887Z,32.91
2022-10-10T19:13:54.164Z,32.93
2022-10-10T19:16:21.894Z,33.47
2022-10-10T19:18:49.101Z,33.68
2022-10-10T19:21:16.638Z,33.86
2022-10-10T19:23:44.408Z,34.62
2022-10-10T19:26:13.433Z,34.57
2022-10-10T19:28:40.955Z,34.05
2022-10-10T19:31:09.603Z,34.21
2022-10-10T19:33:36.869Z,34.02
2022-10-10T19:36:05.104Z,34.49
2022-10-10T19:38:36.166Z,33.86
2022-10-10T19:41:07.302Z,35.34
2022-10-10T19:43:34.745Z,34.84
2022-10-10T19:46:08.626Z,35.60
2022-10-10T19:48:37.081Z,35.49
2022-10-10T19:51:05.259Z,35.16
2022-10-10T19:53:33.596Z,35.75
2022-10-10T19:56:02.353Z,35.44
2022-10-10T19:58:29.962Z,35.74
2022-10-10T20:00:57.148Z,35.29
2022-10-10T20:03:24.730Z,35.44
2022-10-10T20:05:51.840Z,35.14
2022-10-10T20:08:20.215Z,34.99
2022-10-10T20:10:47.845Z,35.27
2022-10-10T20:13:16.142Z,35.35
2022-10-10T20:15:44.006Z,35.15
2022-10-10T20:18:11.666Z,35.10
2022-10-10T20:20:42.335Z,35.34
2022-10-10T20:23:10.947Z,35.77
2022-10-10T20:25:39.087Z,35.24
2022-10-10T20:28:06.580Z,35.15
2022-10-10T20:30:33.791Z,35.33
2022-10-10T20:33:01.227Z,35.61
2022-10-10T20:35:28.346Z,35.13
2022-10-10T20:37:55.470Z,35.24
2022-10-10T20:40:22.866Z,35.15
2022-10-10T20:42:50.013Z,35.02
2022-10-10T20:45:17.155Z,35.60
2022-10-10T20:47:44.524Z,35.27
2022-10-10T20:50:13.067Z,35.25
2022-10-10T20:52:40.220Z,35.67
2022-10-10T20:55:07.823Z,35.54
2022-10-10T20:57:34.932Z,35.67
2022-10-10T21:00:02.044Z,36.25
2022-10-10T21:02:29.622Z,36.49
2022-10-10T21:04:56.979Z,36.44
2022-10-10T21:07:24.121Z,36.45
2022-10-10T21:09:51.513Z,36.42
2022-10-10T21:12:18.616Z,36.62
2022-10-10T21:14:45.732Z,36.43
2022-10-10T21:17:13.106Z,36.65
2022-10-10T21:19:40.233Z,36.80
2022-10-10T21:22:07.354Z,37.03
2022-10-10T21:24:34.752Z,37.15
2022-10-10T21:27:01.874Z,36.75
2022-10-10T21:29:28.991Z,37.02
2022-10-10T21:31:56.379Z,37.39
2022-10-10T21:34:23.501Z,38.05
2022-10-10T21:36:50.643Z,37.61
2022-10-10T21:39:18.046Z,37.49
2022-10-10T21:41:45.165Z,37.53
2022-10-10T21:44:12.327Z,37.38
2022-10-10T21:46:39.749Z,37.67
2022-10-10T21:49:07.877Z,37.53
2022-10-10T21:51:36.538Z,37.33
2022-10-10T21:54:03.972Z,37.71
2022-10-10T21:56:31.082Z,37.45
2022-10-10T21:59:01.244Z,37.76
2022-10-10T22:01:29.433Z,37.71
2022-10-10T22:03:56.946Z,37.68
2022-10-10T22:06:24.419Z,37.67
2022-10-10T22:08:52.465Z,37.38
2022-10-10T22:11:20.896Z,37.37
2022-10-10T22:13:48.189Z,37.38
2022-10-10T22:16:15.449Z,37.11
2022-10-10T22:18:43.036Z,36.96
2022-10-10T22:21:11.615Z,37.10
2022-10-10T22:23:38.747Z,37.05
2022-10-10T22:26:12.708Z,36.84
2022-10-10T22:28:39.869Z,36.71
2022-10-10T22:31:08.078Z,36.79
2022-10-10T22:33:35.269Z,36.81
2022-10-10T22:36:03.023Z,36.65
2022-10-10T22:38:30.678Z,36.90
2022-10-10T22:41:16.607Z,37.48
2022-10-10T22:43:44.036Z,37.04
2022-10-10T22:46:11.174Z,37.05
2022-10-10T22:48:38.335Z,37.01
2022-10-10T22:51:06.853Z,37.44
2022-10-10T22:53:34.121Z,37.12
2022-10-10T22:56:01.341Z,37.13
2022-10-10T22:58:29.043Z,37.32
2022-10-10T23:00:56.231Z,37.34
2022-10-10T23:03:23.410Z,37.49
2022-10-10T23:05:50.827Z,37.66
2022-10-10T23:08:17.941Z,37.74
2022-10-10T23:10:45.615Z,37.21
2022-10-10T23:13:13.023Z,37.07
2022-10-10T23:15:40.128Z,37.13
2022-10-10T23:18:07.364Z,37.37
2022-10-10T23:20:34.748Z,37.30
2022-10-10T23:23:01.860Z,37.27
2022-10-10T23:25:29.158Z,37.28
2022-10-10T23:27:56.546Z,37.59
2022-10-10T23:30:23.754Z,37.53
2022-10-10T23:32:50.887Z,37.84
2022-10-10T23:35:18.570Z,37.51
2022-10-10T23:37:45.685Z,37.51
2022-10-10T23:40:12.870Z,37.46
2022-10-10T23:42:40.244Z,37.19
2022-10-10T23:45:21.953Z,36.23
2022-10-10T23:48:00.988Z,36.86
2022-10-10T23:50:42.173Z,36.73
2022-10-10T23:53:22.571Z,37.12
2022-10-10T23:55:50.075Z,37.45
2022-10-10T23:58:17.480Z,37.86
